Fairmont City, Illinois
Current Conditions -  °F | °C
As of 11:31 AM on Friday 19 Dec 2014 (Local Time) from KCPS Reporting Station
Haze Haze  
Wind Chill: 37°   Ceiling: 1800
Heat Index: 37°   Visibility: 9mi
Dew Point: 28°   Wind: 0mph
Humidity: 70%   Direction: NA
Pressure: 30.3"   Gusts: NA
Location:  38.6386°N, 90.1321°W
Report Text: KCPS 191731Z 00000KT 9SM HZ BKN018 OVC037 03/M02 A3030 RMK AO2 T00281022
Loading
Personal Weather Stations






























Interactive Weather Map New forecast layout! Learn more

10-Day Weather Forecast

Advertisements
Track Severe Weather on mobile